Time;durP1;ratioP1;P1;durP2;ratioP2;P2;SDS_P1;SDS_P2;PMS_P1;PMS_P2;Temp;Humidity;BMP_temperature;BMP_pressure;BME280_temperature;BME280_humidity;BME280_pressure;Samples;Min_cycle;Max_cycle;Signal;HPM_P1;HPM_P2
2023/07/31 00:01:23;;;;;;;4.53;1.80;;;;;;;17.41;73.20;99175.94;4981645;28;20467;-40
2023/07/31 00:03:49;;;;;;;5.88;1.85;;;;;;;17.41;74.19;99170.69;4980546;28;20142;-44
2023/07/31 00:06:16;;;;;;;4.15;1.63;;;;;;;17.42;73.31;99167.16;4978768;28;20088;-44
2023/07/31 00:08:43;;;;;;;7.55;1.20;;;;;;;17.45;74.08;99164.41;4985080;28;20130;-44
2023/07/31 00:11:10;;;;;;;3.83;0.95;;;;;;;17.46;73.33;99157.38;4980015;28;20046;-44
2023/07/31 00:13:37;;;;;;;4.70;0.93;;;;;;;17.47;73.97;99154.69;4981290;28;20062;-42
2023/07/31 00:16:04;;;;;;;2.63;0.63;;;;;;;17.45;73.62;99148.69;4979198;28;20051;-45
2023/07/31 00:18:31;;;;;;;7.18;1.15;;;;;;;17.48;73.17;99147.72;4983298;28;20132;-39
2023/07/31 00:20:57;;;;;;;4.75;1.23;;;;;;;17.47;73.26;99146.84;4981593;28;20042;-42
2023/07/31 00:23:25;;;;;;;2.50;0.80;;;;;;;17.45;73.71;99140.00;4979070;28;20046;-41
2023/07/31 00:25:52;;;;;;;5.63;1.65;;;;;;;17.44;73.46;99133.94;4981780;28;20126;-39
2023/07/31 00:28:20;;;;;;;5.05;1.45;;;;;;;17.45;73.45;99124.28;4982619;28;20062;-44
2023/07/31 00:30:48;;;;;;;5.25;1.02;;;;;;;17.45;74.22;99119.91;4981589;28;20566;-45
2023/07/31 00:33:16;;;;;;;1.85;0.93;;;;;;;17.44;73.50;99126.06;4980200;28;20042;-46
2023/07/31 00:35:45;;;;;;;5.80;1.45;;;;;;;17.46;73.70;99116.38;4981485;28;20379;-49
2023/07/31 00:38:13;;;;;;;5.50;1.10;;;;;;;17.47;74.03;99106.75;4982422;28;20074;-45
2023/07/31 00:40:44;;;;;;;3.10;1.25;;;;;;;17.45;73.51;99104.22;4981157;28;20137;-44
2023/07/31 00:43:12;;;;;;;4.20;1.23;;;;;;;17.47;74.10;99107.59;4982589;28;20139;-44
2023/07/31 00:45:40;;;;;;;5.63;0.80;;;;;;;17.47;73.87;99097.13;4976828;28;20081;-50
2023/07/31 00:48:08;;;;;;;4.28;0.80;;;;;;;17.47;74.41;99099.72;4982928;28;20089;-43
2023/07/31 00:50:36;;;;;;;1.90;0.77;;;;;;;17.50;74.03;99105.75;4985854;28;20077;-47
2023/07/31 00:53:03;;;;;;;3.35;0.90;;;;;;;17.51;74.16;99107.44;4985966;28;20073;-47
2023/07/31 00:55:31;;;;;;;4.07;0.77;;;;;;;17.50;74.34;99111.00;4985803;28;20050;-45
2023/07/31 00:57:59;;;;;;;2.47;0.95;;;;;;;17.50;73.82;99103.13;4983960;28;20050;-44
2023/07/31 01:00:27;;;;;;;2.00;0.85;;;;;;;17.52;73.57;99109.13;4982686;28;20046;-45
2023/07/31 01:02:54;;;;;;;5.55;1.02;;;;;;;17.53;73.61;99108.25;4984825;28;20651;-46
2023/07/31 01:05:36;;;;;;;2.97;0.93;;;;;;;17.54;74.38;99113.41;4984023;28;20046;-39
2023/07/31 01:10:54;;;;;;;5.07;1.75;;;;;;;17.58;74.35;99098.38;5089237;27;20400;-44
2023/07/31 01:13:21;;;;;;;2.30;2.05;;;;;;;17.59;73.65;99089.59;5012012;28;20050;-49
2023/07/31 01:15:48;;;;;;;3.08;1.95;;;;;;;17.62;73.80;99083.41;5036581;28;20426;-47
2023/07/31 01:18:15;;;;;;;3.28;1.95;;;;;;;17.62;74.29;99084.22;5041852;28;20073;-41
2023/07/31 01:20:43;;;;;;;4.22;2.13;;;;;;;17.63;74.26;99077.22;5035321;28;20128;-43
2023/07/31 01:23:42;;;;;;;3.00;2.08;;;;;;;17.59;73.99;99073.91;5039184;28;20081;-47
2023/07/31 01:26:16;;;;;;;2.63;1.98;;;;;;;17.61;74.22;99061.59;5037277;28;20066;-49
2023/07/31 01:28:55;;;;;;;2.72;0.50;;;;;;;17.61;74.61;99064.22;5038983;28;20565;-39
2023/07/31 01:31:24;;;;;;;5.03;1.85;;;;;;;17.62;74.13;99052.81;5041263;28;20045;-42
2023/07/31 01:33:54;;;;;;;4.07;2.55;;;;;;;17.64;73.93;99048.38;5036286;28;20049;-42
2023/07/31 01:36:21;;;;;;;2.88;1.85;;;;;;;17.63;73.91;99048.44;5037724;28;20092;-46
2023/07/31 01:38:48;;;;;;;2.05;1.75;;;;;;;17.63;74.79;99044.03;5039099;28;20044;-44
2023/07/31 01:41:17;;;;;;;6.70;1.55;;;;;;;17.63;74.54;99033.56;5040624;28;20049;-41
2023/07/31 01:43:45;;;;;;;3.88;1.83;;;;;;;17.62;74.37;99042.34;5041831;28;20660;-44
2023/07/31 01:46:12;;;;;;;2.55;0.70;;;;;;;17.62;74.73;99041.50;5039156;28;20490;-43
2023/07/31 01:48:38;;;;;;;2.65;2.45;;;;;;;17.63;75.16;99044.03;5042492;28;20048;-48
2023/07/31 01:51:05;;;;;;;4.57;1.80;;;;;;;17.64;75.00;99035.28;5040683;28;20061;-44
2023/07/31 01:53:32;;;;;;;2.95;1.77;;;;;;;17.65;74.82;99042.19;5042702;28;20053;-49
2023/07/31 01:55:59;;;;;;;2.13;1.40;;;;;;;17.66;74.45;99033.41;5039169;28;20049;-43
2023/07/31 01:58:26;;;;;;;2.22;2.00;;;;;;;17.69;74.56;99029.78;5036566;28;20067;-43
2023/07/31 02:00:53;;;;;;;2.60;1.05;;;;;;;17.70;74.94;99034.13;5054382;28;20048;-45
2023/07/31 02:03:19;;;;;;;2.15;1.95;;;;;;;17.70;74.69;99029.72;5055585;28;20145;-41
2023/07/31 02:05:48;;;;;;;1.90;1.75;;;;;;;17.71;74.77;99026.19;5051130;28;20064;-47
2023/07/31 02:08:16;;;;;;;2.47;1.77;;;;;;;17.71;75.27;99023.56;5054486;28;20052;-45
2023/07/31 02:10:42;;;;;;;3.42;1.35;;;;;;;17.72;74.92;99033.13;5057254;28;20056;-51
2023/07/31 02:13:10;;;;;;;2.08;1.85;;;;;;;17.72;74.85;99033.13;5054585;28;20492;-44
2023/07/31 02:15:37;;;;;;;1.80;1.52;;;;;;;17.73;75.35;99024.34;5047162;28;20132;-46
2023/07/31 02:18:03;;;;;;;2.63;1.38;;;;;;;17.75;74.81;99007.69;5057878;28;20045;-43
2023/07/31 02:20:34;;;;;;;2.10;1.63;;;;;;;17.78;75.34;99015.41;5050043;28;20060;-47
2023/07/31 02:23:01;;;;;;;1.15;0.47;;;;;;;17.79;75.64;99006.63;5046143;28;21278;-46
2023/07/31 02:25:28;;;;;;;1.65;1.52;;;;;;;17.81;75.10;99007.41;5039906;28;20052;-46
2023/07/31 02:27:54;;;;;;;1.90;1.65;;;;;;;17.82;75.55;99016.94;5041587;28;20048;-41
2023/07/31 02:30:21;;;;;;;3.05;1.63;;;;;;;17.83;75.04;99013.41;5041232;28;20041;-41
2023/07/31 02:32:48;;;;;;;1.33;1.20;;;;;;;17.84;75.42;99009.88;5043499;28;20057;-46
2023/07/31 02:35:15;;;;;;;3.42;1.73;;;;;;;17.85;75.38;99016.81;5037733;28;20530;-42
2023/07/31 02:37:42;;;;;;;2.20;1.48;;;;;;;17.85;75.22;99016.81;5043069;28;20052;-45
2023/07/31 02:40:10;;;;;;;1.73;1.42;;;;;;;17.85;74.93;99008.94;5043464;28;20041;-42
2023/07/31 02:42:36;;;;;;;2.05;1.52;;;;;;;17.84;75.63;99002.84;5036928;28;20053;-43
2023/07/31 02:45:03;;;;;;;1.48;1.38;;;;;;;17.86;75.85;99005.38;5038422;28;20408;-45
2023/07/31 02:47:30;;;;;;;1.50;1.40;;;;;;;17.86;75.46;99021.09;5038580;28;20132;-42
2023/07/31 02:49:57;;;;;;;3.38;1.75;;;;;;;17.86;75.17;99008.00;5042425;28;20043;-45
2023/07/31 02:52:24;;;;;;;2.35;1.45;;;;;;;17.87;75.71;99009.72;5034245;28;20049;-44
2023/07/31 02:54:50;;;;;;;2.38;1.35;;;;;;;17.88;75.69;99006.19;5036621;28;20439;-44
2023/07/31 02:57:17;;;;;;;3.97;1.10;;;;;;;17.90;75.23;99008.72;5037447;28;20049;-45
2023/07/31 02:59:44;;;;;;;1.63;1.50;;;;;;;17.90;75.71;99013.97;5041819;28;20047;-42
2023/07/31 03:02:12;;;;;;;2.28;1.33;;;;;;;17.90;75.99;99013.97;5037388;28;20057;-43
2023/07/31 03:04:39;;;;;;;2.50;1.27;;;;;;;17.91;75.92;99011.28;5038110;28;20084;-41
2023/07/31 03:07:05;;;;;;;2.50;2.40;;;;;;;17.92;75.71;99007.72;5035909;28;20045;-45
2023/07/31 03:09:32;;;;;;;2.03;1.52;;;;;;;17.93;75.92;99003.34;5040667;28;20068;-47
2023/07/31 03:11:59;;;;;;;2.40;2.30;;;;;;;17.93;75.64;98993.69;5035479;28;20045;-45
2023/07/31 03:14:26;;;;;;;2.80;2.70;;;;;;;17.93;75.75;98993.69;5037091;28;20179;-46
2023/07/31 03:16:53;;;;;;;2.33;1.42;;;;;;;17.93;76.07;98992.84;5038957;28;20080;-49
2023/07/31 03:19:20;;;;;;;1.40;1.30;;;;;;;17.93;75.61;98988.44;5035086;28;20497;-45
2023/07/31 03:21:47;;;;;;;1.92;1.75;;;;;;;17.94;75.88;98990.13;5042505;28;20049;-43
2023/07/31 03:24:13;;;;;;;1.55;1.45;;;;;;;17.94;75.72;98979.66;5036949;28;20045;-47
2023/07/31 03:26:41;;;;;;;2.20;2.10;;;;;;;17.96;76.09;98983.06;5030743;28;20083;-42
2023/07/31 03:29:08;;;;;;;1.50;1.13;;;;;;;17.96;76.29;98977.81;5036169;28;20064;-44
2023/07/31 03:31:35;;;;;;;2.25;1.55;;;;;;;17.96;76.04;98977.81;5034696;28;20049;-47
2023/07/31 03:34:02;;;;;;;3.53;1.50;;;;;;;17.96;76.20;98977.81;5035102;28;20496;-44
2023/07/31 03:36:28;;;;;;;2.10;1.52;;;;;;;17.98;75.90;98972.50;5033491;28;20044;-43
2023/07/31 03:38:55;;;;;;;1.63;1.52;;;;;;;17.98;76.32;98954.16;5036501;28;20064;-45
2023/07/31 03:41:22;;;;;;;2.05;1.85;;;;;;;17.98;76.33;98960.25;5041141;28;20056;-46
2023/07/31 03:43:52;;;;;;;3.78;1.45;;;;;;;17.97;76.56;98962.97;5041111;28;20071;-49
2023/07/31 03:46:19;;;;;;;2.47;1.00;;;;;;;17.99;75.65;98967.19;5039141;28;21514;-43
2023/07/31 03:48:45;;;;;;;1.70;1.60;;;;;;;18.01;76.26;98968.88;5040255;28;20056;-45
2023/07/31 03:51:12;;;;;;;1.25;1.15;;;;;;;18.01;75.52;98961.03;5040245;28;20048;-47
2023/07/31 03:53:39;;;;;;;1.83;1.73;;;;;;;18.02;76.19;98971.41;5037445;28;20440;-42
2023/07/31 03:56:05;;;;;;;1.85;1.65;;;;;;;18.03;76.23;98973.09;5034794;28;20060;-39
2023/07/31 03:58:32;;;;;;;4.35;1.77;;;;;;;18.04;75.93;98968.72;5037546;28;20496;-48
2023/07/31 04:00:59;;;;;;;1.95;1.85;;;;;;;18.05;76.33;98959.94;5031779;28;20151;-49
2023/07/31 04:03:26;;;;;;;3.38;1.40;;;;;;;18.06;76.25;98961.63;5039995;28;20069;-43
2023/07/31 04:05:55;;;;;;;1.60;1.50;;;;;;;18.06;75.93;98961.63;5036873;28;20052;-48
2023/07/31 04:08:23;;;;;;;1.58;1.48;;;;;;;18.07;76.09;98960.72;5039924;28;20056;-41
2023/07/31 04:10:50;;;;;;;1.23;1.13;;;;;;;18.08;75.99;98965.03;5029659;28;20045;-49
2023/07/31 04:13:17;;;;;;;0.75;0.70;;;;;;;18.09;76.20;98951.00;5040575;28;20412;-45
2023/07/31 04:15:49;;;;;;;2.00;1.77;;;;;;;18.11;76.67;98959.66;5035358;28;20041;-42
2023/07/31 04:18:17;;;;;;;1.38;1.27;;;;;;;18.09;76.32;98953.63;5034321;28;20729;-44
2023/07/31 04:20:44;;;;;;;1.95;1.85;;;;;;;18.08;76.53;98954.53;5039160;28;20144;-44
2023/07/31 04:23:11;;;;;;;1.85;1.63;;;;;;;18.09;76.54;98961.50;5042382;28;20073;-44
2023/07/31 04:25:38;;;;;;;2.28;2.17;;;;;;;18.10;76.17;98957.94;5038373;28;20048;-46
2023/07/31 04:28:04;;;;;;;2.25;2.05;;;;;;;18.10;76.54;98968.44;5042286;28;20052;-46
2023/07/31 04:30:31;;;;;;;2.33;2.22;;;;;;;18.11;76.50;98970.16;5036299;28;20585;-39
2023/07/31 04:32:58;;;;;;;1.83;1.73;;;;;;;18.14;75.98;98970.00;5039633;28;20044;-44
2023/07/31 04:35:24;;;;;;;2.65;1.80;;;;;;;18.14;76.28;98964.75;5042009;28;20063;-41
2023/07/31 04:37:51;;;;;;;2.22;2.03;;;;;;;18.16;76.18;98968.13;5039593;28;20045;-46
2023/07/31 04:40:18;;;;;;;1.73;1.63;;;;;;;18.18;76.46;98971.53;5045423;28;20048;-48
2023/07/31 04:42:46;;;;;;;2.28;1.92;;;;;;;18.19;76.92;98973.22;5040985;28;20060;-40
2023/07/31 04:45:13;;;;;;;2.35;1.83;;;;;;;18.19;76.88;98964.50;5043698;28;20126;-45
2023/07/31 04:47:39;;;;;;;1.92;1.83;;;;;;;18.20;76.29;98964.41;5042759;28;20057;-38
2023/07/31 04:50:07;;;;;;;1.88;1.77;;;;;;;18.23;76.60;98964.25;5044744;28;20045;-48
2023/07/31 04:52:34;;;;;;;4.63;2.17;;;;;;;18.23;76.56;98960.78;5042493;28;20660;-41
2023/07/31 04:55:01;;;;;;;3.42;1.50;;;;;;;18.22;76.65;98962.56;5042315;28;20049;-42
2023/07/31 04:57:27;;;;;;;4.38;2.45;;;;;;;18.21;76.83;98960.84;5039893;28;20055;-45
2023/07/31 04:59:54;;;;;;;6.65;2.42;;;;;;;18.24;76.50;98960.69;5034268;28;20044;-39
2023/07/31 05:02:21;;;;;;;2.92;2.10;;;;;;;18.24;76.14;98965.94;5037304;28;20045;-44
2023/07/31 05:04:48;;;;;;;2.38;1.45;;;;;;;18.26;76.62;98967.63;5033934;28;20064;-41
2023/07/31 05:07:15;;;;;;;2.58;1.95;;;;;;;18.26;76.85;98972.88;5035558;28;20507;-43
2023/07/31 05:09:42;;;;;;;3.42;2.25;;;;;;;18.26;76.18;98972.88;5037265;28;20071;-48
2023/07/31 05:12:08;;;;;;;3.50;2.42;;;;;;;18.26;76.16;98976.34;5035210;28;20049;-46
2023/07/31 05:14:35;;;;;;;2.25;1.83;;;;;;;18.28;76.23;98976.28;5032525;28;20049;-44
2023/07/31 05:17:02;;;;;;;4.05;2.30;;;;;;;18.28;76.51;98978.91;5037749;28;20053;-43
2023/07/31 05:19:28;;;;;;;2.10;1.73;;;;;;;18.27;76.44;98979.84;5037322;28;20064;-43
2023/07/31 05:21:55;;;;;;;3.47;3.20;;;;;;;18.26;76.53;98983.34;5043971;28;20036;-50
2023/07/31 05:24:22;;;;;;;5.30;2.25;;;;;;;18.27;76.70;98979.84;5038571;28;20466;-47
2023/07/31 05:26:48;;;;;;;3.00;2.63;;;;;;;18.26;76.78;98985.97;5031559;28;20048;-43
2023/07/31 05:29:16;;;;;;;3.92;2.20;;;;;;;18.26;76.87;98981.59;5042327;28;20052;-44
2023/07/31 05:31:43;;;;;;;2.63;2.22;;;;;;;18.24;76.53;98980.84;5036866;28;20458;-41
2023/07/31 05:34:10;;;;;;;5.13;2.22;;;;;;;18.22;76.70;98973.06;5030893;28;20048;-43
2023/07/31 05:36:36;;;;;;;6.53;2.63;;;;;;;18.24;76.57;98976.44;5035641;28;20123;-46
2023/07/31 05:39:07;;;;;;;2.67;2.30;;;;;;;18.23;76.99;98974.75;5036308;28;20484;-49
2023/07/31 05:41:35;;;;;;;10.40;3.17;;;;;;;18.23;76.57;98979.97;5041413;28;20052;-38
2023/07/31 05:44:02;;;;;;;3.55;2.53;;;;;;;18.26;76.66;98983.34;5040069;28;20190;-48
2023/07/31 05:46:30;;;;;;;3.78;2.50;;;;;;;18.27;76.72;98985.06;5040228;28;20056;-46
2023/07/31 05:49:00;;;;;;;2.58;2.20;;;;;;;18.27;76.69;98974.59;5039394;28;20063;-41
2023/07/31 05:51:27;;;;;;;5.45;3.08;;;;;;;18.28;77.05;98984.13;5034842;28;20134;-45
2023/07/31 05:53:54;;;;;;;3.55;2.20;;;;;;;18.29;77.05;98978.81;5041326;28;20095;-44
2023/07/31 05:56:21;;;;;;;3.67;2.08;;;;;;;18.30;76.34;98993.59;5033129;28;20072;-44
2023/07/31 05:58:48;;;;;;;5.38;1.85;;;;;;;18.30;76.20;98984.91;5035777;28;20052;-46
2023/07/31 06:01:16;;;;;;;3.67;2.17;;;;;;;18.31;76.44;98992.69;5032837;28;20044;-39
2023/07/31 06:03:44;;;;;;;3.17;2.28;;;;;;;18.33;76.91;98989.97;5031467;28;20508;-46
2023/07/31 06:06:11;;;;;;;4.43;2.72;;;;;;;18.37;77.00;98996.75;5031914;28;20048;-45
2023/07/31 06:08:37;;;;;;;4.38;3.85;;;;;;;18.43;76.88;98991.19;5033211;28;20488;-48
2023/07/31 06:11:05;;;;;;;3.15;2.67;;;;;;;18.53;76.79;98995.94;5033258;28;20048;-47
2023/07/31 06:13:32;;;;;;;2.85;2.33;;;;;;;18.55;76.63;98988.88;5033324;28;20061;-42
2023/07/31 06:15:59;;;;;;;5.32;2.45;;;;;;;18.56;75.96;98982.69;5039386;28;20091;-41
2023/07/31 06:18:26;;;;;;;3.72;1.60;;;;;;;18.55;76.57;98973.13;5041782;28;20124;-44
2023/07/31 06:20:53;;;;;;;3.00;1.83;;;;;;;18.56;76.18;98974.81;5037861;28;20095;-41
2023/07/31 06:23:20;;;;;;;6.47;3.33;;;;;;;18.56;75.94;98965.19;5040574;28;20138;-45
2023/07/31 06:25:47;;;;;;;3.33;2.08;;;;;;;18.56;75.83;98959.09;5039127;28;20574;-42
2023/07/31 06:28:14;;;;;;;2.53;1.17;;;;;;;18.56;76.22;98948.59;5045819;28;20454;-45
2023/07/31 06:30:41;;;;;;;4.18;2.63;;;;;;;18.55;76.33;98947.78;5037804;28;20073;-42
2023/07/31 06:33:09;;;;;;;3.40;2.30;;;;;;;18.55;76.34;98945.16;5036331;28;20099;-47
2023/07/31 06:35:36;;;;;;;3.35;2.45;;;;;;;18.55;75.69;98946.91;5040871;28;20057;-44
2023/07/31 06:38:03;;;;;;;3.33;2.40;;;;;;;18.56;75.96;98952.06;5031975;28;20148;-46
2023/07/31 06:40:30;;;;;;;5.60;1.92;;;;;;;18.55;75.70;98949.53;5045069;28;20084;-45
2023/07/31 06:42:57;;;;;;;3.70;2.38;;;;;;;18.56;75.89;98951.22;5041778;28;20053;-42
2023/07/31 06:45:24;;;;;;;3.63;2.35;;;;;;;18.58;75.89;98949.38;5042307;28;20490;-45
2023/07/31 06:47:50;;;;;;;4.90;3.33;;;;;;;18.61;75.39;98936.09;5040571;28;20091;-44
2023/07/31 06:50:17;;;;;;;4.82;1.75;;;;;;;18.62;75.73;98932.53;5038450;28;20057;-39
2023/07/31 06:52:44;;;;;;;2.80;0.93;;;;;;;18.62;75.81;98937.78;5036713;28;20458;-39
2023/07/31 06:55:21;;;;;;;3.60;2.40;;;;;;;18.63;75.31;98934.22;5041344;28;20400;-44
2023/07/31 06:57:49;;;;;;;3.42;2.30;;;;;;;18.66;75.66;98944.56;5035393;28;20049;-41
2023/07/31 07:00:17;;;;;;;4.90;2.28;;;;;;;18.68;75.15;98958.41;5028324;28;20124;-44
2023/07/31 07:02:43;;;;;;;2.90;1.88;;;;;;;18.69;75.09;98952.25;5031040;28;20133;-44
2023/07/31 07:05:11;;;;;;;2.95;2.58;;;;;;;18.71;74.88;98953.00;5032168;28;20048;-47
2023/07/31 07:07:38;;;;;;;4.18;2.60;;;;;;;18.73;75.11;98956.41;5036352;28;20847;-45
2023/07/31 07:10:05;;;;;;;3.72;2.58;;;;;;;18.67;75.11;98955.91;5024482;28;20064;-47
2023/07/31 07:12:33;;;;;;;3.53;2.35;;;;;;;18.72;75.15;98954.72;5032917;28;20107;-47
2023/07/31 07:15:00;;;;;;;3.17;2.20;;;;;;;18.75;75.02;98954.53;5026424;28;20057;-41
2023/07/31 07:17:31;;;;;;;2.88;2.30;;;;;;;18.79;74.88;98954.38;5024489;28;23847;-43
2023/07/31 07:19:58;;;;;;;2.90;2.03;;;;;;;18.83;74.46;98958.53;5032962;28;20119;-41
2023/07/31 07:22:25;;;;;;;2.88;2.33;;;;;;;18.84;74.39;98960.22;5031828;28;20084;-46
2023/07/31 07:24:52;;;;;;;3.95;1.92;;;;;;;18.86;74.84;98953.13;5032569;28;20118;-42
2023/07/31 07:27:19;;;;;;;3.67;1.92;;;;;;;18.90;74.70;98957.25;5028391;28;20049;-39
2023/07/31 07:29:46;;;;;;;3.15;1.73;;;;;;;18.94;74.13;98958.78;5030225;28;20073;-44
2023/07/31 07:32:13;;;;;;;7.03;2.53;;;;;;;19.00;74.28;98953.22;5031739;28;20065;-45
2023/07/31 07:34:40;;;;;;;2.50;2.30;;;;;;;19.08;73.86;98944.91;5034054;28;20797;-46
2023/07/31 07:37:07;;;;;;;2.88;2.42;;;;;;;19.17;73.95;98948.81;5036337;28;20284;-44
2023/07/31 07:39:36;;;;;;;4.78;2.10;;;;;;;19.26;74.15;98953.53;5028967;28;20145;-47
2023/07/31 07:42:03;;;;;;;4.15;2.40;;;;;;;19.32;73.91;98941.00;5032754;28;20052;-40
2023/07/31 07:44:30;;;;;;;3.53;1.55;;;;;;;19.38;73.73;98940.66;5035946;28;20071;-41
2023/07/31 07:46:57;;;;;;;3.05;2.05;;;;;;;19.41;73.23;98939.66;5035824;28;20049;-44
2023/07/31 07:49:24;;;;;;;2.95;2.13;;;;;;;19.41;73.47;98940.47;5031590;28;20052;-47
2023/07/31 07:51:51;;;;;;;4.70;2.63;;;;;;;19.41;73.44;98940.47;5028307;28;20048;-41
2023/07/31 07:54:20;;;;;;;2.83;1.88;;;;;;;19.37;73.14;98931.94;5030327;28;20053;-45
2023/07/31 07:56:49;;;;;;;2.80;2.08;;;;;;;19.39;73.29;98923.97;5029414;28;20504;-40
2023/07/31 07:59:16;;;;;;;3.58;2.45;;;;;;;19.39;73.16;98900.34;5030278;28;20069;-49
2023/07/31 08:01:43;;;;;;;2.88;1.95;;;;;;;19.40;73.02;98896.78;5035759;28;20137;-43
2023/07/31 08:04:10;;;;;;;4.53;2.67;;;;;;;19.41;73.02;98897.63;5035262;28;20045;-43
2023/07/31 08:06:37;;;;;;;3.22;2.35;;;;;;;19.43;72.43;98901.88;5032695;28;20577;-47
2023/07/31 08:09:06;;;;;;;3.78;3.47;;;;;;;19.44;72.09;98911.41;5034063;28;20082;-45
2023/07/31 08:11:33;;;;;;;3.40;1.77;;;;;;;19.49;72.41;98912.00;5038513;28;20080;-43
2023/07/31 08:14:05;;;;;;;2.85;1.75;;;;;;;19.51;72.23;98920.63;5031138;28;20061;-49
2023/07/31 08:16:32;;;;;;;3.72;1.92;;;;;;;19.53;72.12;98929.25;5027351;28;20041;-47
2023/07/31 08:18:59;;;;;;;2.47;2.28;;;;;;;19.54;71.71;98924.84;5032300;28;20044;-44
2023/07/31 08:21:25;;;;;;;3.75;2.40;;;;;;;19.52;71.69;98932.81;5030996;28;20056;-43
2023/07/31 08:23:52;;;;;;;3.80;2.97;;;;;;;19.51;71.37;98946.91;5032914;28;20408;-44
2023/07/31 08:26:20;;;;;;;2.70;1.13;;;;;;;19.48;71.17;98933.94;5028968;28;20331;-41
2023/07/31 08:28:47;;;;;;;3.85;2.20;;;;;;;19.45;70.91;98928.84;5035946;28;20053;-45
2023/07/31 08:31:18;;;;;;;4.15;2.13;;;;;;;19.44;71.31;98919.28;5031484;28;20072;-40
2023/07/31 08:33:45;;;;;;;3.60;2.00;;;;;;;19.39;70.95;98905.59;5028148;28;20053;-41
2023/07/31 08:36:11;;;;;;;3.03;2.15;;;;;;;19.38;70.91;98909.13;5033857;28;20060;-47
2023/07/31 08:38:38;;;;;;;2.80;2.53;;;;;;;19.34;71.08;98918.13;5036291;28;20052;-44
2023/07/31 08:41:05;;;;;;;2.80;2.33;;;;;;;19.32;70.66;98912.13;5032656;28;20045;-46
2023/07/31 08:43:33;;;;;;;4.13;2.28;;;;;;;19.30;70.76;98906.13;5032571;28;20053;-42
2023/07/31 08:46:01;;;;;;;4.30;1.90;;;;;;;19.32;70.54;98920.84;5028984;28;20679;-49
2023/07/31 08:48:29;;;;;;;3.33;2.05;;;;;;;19.35;70.55;98923.28;5028846;28;20077;-45
2023/07/31 08:50:56;;;;;;;2.45;1.90;;;;;;;19.37;70.52;98920.59;5028278;28;20041;-45
2023/07/31 08:53:22;;;;;;;3.20;2.10;;;;;;;19.43;70.29;98927.25;5031188;28;20045;-43
2023/07/31 08:55:50;;;;;;;3.10;2.00;;;;;;;19.46;70.80;98925.31;5029278;28;20094;-43
2023/07/31 08:58:18;;;;;;;2.72;1.90;;;;;;;19.48;70.22;98909.44;5028149;28;20157;-46
2023/07/31 09:00:47;;;;;;;3.35;2.03;;;;;;;19.47;70.42;98908.63;5036938;28;20041;-46
2023/07/31 09:03:16;;;;;;;2.42;2.22;;;;;;;19.50;69.82;98908.44;5032760;28;20060;-40
2023/07/31 09:05:46;;;;;;;2.15;1.75;;;;;;;19.52;69.85;98916.22;5021956;28;20076;-42
2023/07/31 09:08:17;;;;;;;2.97;2.70;;;;;;;19.52;69.86;98924.94;5030570;28;20060;-45
2023/07/31 09:10:46;;;;;;;2.22;1.73;;;;;;;19.53;69.69;98929.25;5026371;28;20053;-47
2023/07/31 09:13:14;;;;;;;2.33;2.05;;;;;;;19.55;69.54;98920.47;5055250;28;20063;-50
2023/07/31 09:15:44;;;;;;;3.13;2.05;;;;;;;19.59;70.12;98921.97;5055390;28;20053;-51
2023/07/31 09:18:11;;;;;;;2.72;1.33;;;;;;;19.61;69.49;98917.47;5051122;28;20036;-42
2023/07/31 09:20:38;;;;;;;2.28;2.10;;;;;;;19.62;69.57;98913.91;5033973;28;20496;-45
2023/07/31 09:25:44;;;;;;;2.42;0.68;;;;;;;19.68;69.11;98916.16;5094335;27;20382;-45
2023/07/31 09:28:11;;;;;;;1.60;0.77;;;;;;;19.71;69.29;98910.75;5066392;27;20053;-47
2023/07/31 09:30:54;;;;;;;1.65;0.90;;;;;;;19.71;69.37;98902.84;5045335;28;20140;-46
2023/07/31 09:33:21;;;;;;;1.75;1.00;;;;;;;19.75;68.85;98917.50;5051893;28;20040;-50
2023/07/31 09:35:48;;;;;;;3.33;0.65;;;;;;;19.76;69.25;98910.47;5058376;28;20044;-42
2023/07/31 09:38:16;;;;;;;2.30;0.98;;;;;;;19.76;69.29;98906.06;5056533;28;20164;-41
2023/07/31 09:40:44;;;;;;;1.83;1.02;;;;;;;19.81;69.22;98907.56;5040129;28;20056;-43
2023/07/31 09:43:16;;;;;;;1.35;0.73;;;;;;;19.81;68.91;98904.94;5058325;28;20080;-44
2023/07/31 09:45:44;;;;;;;1.55;0.80;;;;;;;19.83;68.87;98909.19;5028566;28;20059;-43
2023/07/31 09:48:17;;;;;;;2.00;0.70;;;;;;;19.86;68.64;98914.22;5043403;28;20622;-47
2023/07/31 09:50:46;;;;;;;1.90;0.80;;;;;;;19.87;68.94;98920.34;5053788;28;20055;-44
2023/07/31 09:53:15;;;;;;;2.03;0.68;;;;;;;19.91;68.61;98929.72;5042194;28;20137;-46
2023/07/31 09:55:42;;;;;;;2.47;0.90;;;;;;;19.97;68.92;98916.22;5054122;28;20055;-49
2023/07/31 09:58:13;;;;;;;4.38;1.30;;;;;;;20.00;68.75;98905.53;5064290;28;20050;-46
2023/07/31 10:00:40;;;;;;;2.67;1.25;;;;;;;20.07;69.19;98913.06;5072473;28;20056;-48
2023/07/31 10:03:08;;;;;;;3.88;1.13;;;;;;;20.14;68.66;98906.50;5074542;28;20048;-50
2023/07/31 10:05:40;;;;;;;4.47;1.15;;;;;;;20.20;68.92;98906.13;5072102;28;20048;-42
2023/07/31 10:08:09;;;;;;;2.70;1.17;;;;;;;20.26;68.68;98895.22;5052311;28;20060;-42
2023/07/31 10:10:40;;;;;;;2.65;1.30;;;;;;;20.31;68.49;98883.59;5070021;28;20060;-45
2023/07/31 10:13:08;;;;;;;4.32;1.02;;;;;;;20.39;68.43;98879.53;5072796;28;20048;-44
2023/07/31 10:15:36;;;;;;;3.83;1.40;;;;;;;20.51;68.23;98893.72;5073551;28;20075;-46
2023/07/31 10:18:06;;;;;;;4.68;1.48;;;;;;;20.64;68.32;98892.94;5056352;28;20051;-44
2023/07/31 10:20:34;;;;;;;2.45;1.45;;;;;;;20.76;68.46;98897.41;5055436;28;20059;-43
2023/07/31 10:23:01;;;;;;;2.72;1.13;;;;;;;20.81;67.76;98882.16;5073841;28;20056;-40
2023/07/31 10:25:28;;;;;;;7.75;1.30;;;;;;;20.84;67.67;98888.19;5072438;28;20647;-43
2023/07/31 10:27:57;;;;;;;3.35;1.33;;;;;;;20.77;67.08;98899.09;5069623;28;20044;-43
2023/07/31 10:30:27;;;;;;;3.08;1.48;;;;;;;20.71;67.20;98898.66;5070625;28;20511;-51
2023/07/31 10:32:55;;;;;;;2.40;1.15;;;;;;;20.67;67.04;98900.66;5065429;28;20546;-47
2023/07/31 10:35:22;;;;;;;6.25;1.65;;;;;;;20.60;66.92;98907.22;5066057;28;20059;-44
2023/07/31 10:37:49;;;;;;;3.00;0.93;;;;;;;20.53;67.34;98902.34;5056291;28;20059;-44
2023/07/31 10:40:19;;;;;;;2.20;1.15;;;;;;;20.44;66.86;98895.03;5060437;28;20052;-44
2023/07/31 10:45:31;;;;;;;3.83;1.33;;;;;;;20.38;67.09;98911.19;5075775;27;20447;-42
2023/07/31 10:48:07;;;;;;;6.35;1.95;;;;;;;20.37;66.94;98917.41;5034060;28;20107;-48
2023/07/31 10:50:39;;;;;;;3.08;1.35;;;;;;;20.35;67.16;98929.78;5033377;28;20053;-48
2023/07/31 10:53:07;;;;;;;6.55;1.75;;;;;;;20.35;67.08;98928.00;5035405;28;20052;-43
2023/07/31 10:55:40;;;;;;;4.35;1.27;;;;;;;20.34;66.98;98933.34;5026983;28;20127;-44
2023/07/31 10:58:08;;;;;;;4.88;1.67;;;;;;;20.33;67.15;98931.66;5043761;28;20061;-43
2023/07/31 11:00:39;;;;;;;5.55;1.27;;;;;;;20.35;66.71;98929.78;5028473;28;20636;-47
2023/07/31 11:08:22;;;;;;;2.97;0.95;;;;;;;20.24;66.57;98915.53;5073212;27;20399;-48
2023/07/31 11:10:51;;;;;;;4.47;1.33;;;;;;;20.17;65.58;98909.78;4995079;28;20141;-44
2023/07/31 11:13:18;;;;;;;;;;;;;;;19.94;65.66;98905.91;5018912;28;20176;-48
2023/07/31 11:15:48;;;;;;;4.65;1.70;;;;;;;19.99;65.01;98914.38;5019158;28;20008;-44
2023/07/31 11:18:16;;;;;;;4.53;1.25;;;;;;;19.97;65.06;98931.13;5018720;28;20056;-46
2023/07/31 11:20:43;;;;;;;2.65;1.40;;;;;;;19.90;65.19;98928.03;5017911;28;20057;-44
2023/07/31 11:23:11;;;;;;;4.32;1.48;;;;;;;19.88;65.02;98922.03;5019427;28;20062;-48
2023/07/31 11:25:41;;;;;;;6.63;3.22;;;;;;;19.87;64.83;98938.72;5023703;28;20589;-47
2023/07/31 11:28:11;;;;;;;6.53;1.88;;;;;;;19.85;64.89;98944.06;5034912;28;20049;-45
2023/07/31 11:30:40;;;;;;;5.40;1.55;;;;;;;19.83;65.07;98942.47;5042227;28;20060;-45
2023/07/31 11:33:09;;;;;;;6.53;1.60;;;;;;;19.77;64.80;98941.91;5023793;28;20049;-44
2023/07/31 11:35:43;;;;;;;5.90;1.40;;;;;;;19.71;64.21;98938.78;5042317;28;20107;-40
2023/07/31 11:38:21;;;;;;;5.28;1.60;;;;;;;19.68;64.51;98931.94;5036511;28;20052;-47
2023/07/31 11:40:48;;;;;;;3.60;1.45;;;;;;;19.62;64.07;98922.63;5040370;28;20084;-45
2023/07/31 11:43:17;;;;;;;7.78;2.00;;;;;;;19.62;64.33;98932.31;5037636;28;20060;-49
2023/07/31 11:45:48;;;;;;;6.55;2.50;;;;;;;19.56;64.02;98924.78;5042851;28;20053;-50
2023/07/31 11:51:02;;;;;;;5.97;3.13;;;;;;;19.53;64.20;98908.25;5014977;28;21219;-50
2023/07/31 11:53:37;;;;;;;7.07;2.35;;;;;;;19.50;64.26;98902.34;4998656;28;20061;-46